Time;durP1;ratioP1;P1;durP2;ratioP2;P2;SDS_P1;SDS_P2;PMS_P1;PMS_P2;Temp;Humidity;BMP_temperature;BMP_pressure;BME280_temperature;BME280_humidity;BME280_pressure;Samples;Min_cycle;Max_cycle;Signal;HPM_P1;HPM_P2
2021/03/17 00:00:23;;;;;;;7.57;5.57;;;3.40;99.90;;;;;;5079398;28;20465;-81
2021/03/17 00:02:48;;;;;;;4.13;3.73;;;3.70;99.90;;;;;;5072631;28;20171;-81
2021/03/17 00:05:21;;;;;;;6.60;6.00;;;3.20;99.90;;;;;;5080310;28;20427;-81
2021/03/17 00:07:47;;;;;;;5.60;4.80;;;3.70;99.90;;;;;;5082968;28;20166;-81
2021/03/17 00:10:16;;;;;;;7.20;6.37;;;3.20;99.90;;;;;;5089291;28;20830;-82
2021/03/17 00:12:52;;;;;;;10.17;8.80;;;3.60;99.90;;;;;;5077222;28;20635;-81
2021/03/17 00:15:24;;;;;;;8.07;5.80;;;3.70;99.90;;;;;;5068876;28;20467;-81
2021/03/17 00:17:50;;;;;;;9.07;8.07;;;3.60;99.90;;;;;;5067043;28;20839;-81
2021/03/17 00:20:25;;;;;;;9.00;6.97;;;3.60;99.90;;;;;;5078924;28;20431;-82
2021/03/17 00:22:55;;;;;;;8.83;7.40;;;3.30;99.90;;;;;;5072017;28;20420;-81
2021/03/17 00:25:32;;;;;;;10.47;9.37;;;3.70;99.90;;;;;;5081293;28;20428;-82
2021/03/17 00:28:02;;;;;;;11.67;8.27;;;3.80;99.90;;;;;;5081265;28;20538;-82
2021/03/17 00:30:32;;;;;;;10.70;8.90;;;3.70;99.90;;;;;;5090151;28;20446;-82
2021/03/17 00:32:59;;;;;;;7.10;5.50;;;3.70;99.90;;;;;;5059493;28;20821;-81
2021/03/17 00:35:26;;;;;;;9.37;7.97;;;3.30;99.90;;;;;;5084720;28;20506;-81
2021/03/17 00:37:51;;;;;;;11.00;7.87;;;3.50;99.90;;;;;;5066756;28;20472;-80
2021/03/17 00:40:17;;;;;;;9.17;4.63;;;3.30;99.90;;;;;;5077914;28;20417;-80
2021/03/17 00:43:01;;;;;;;6.83;5.90;;;3.60;99.90;;;;;;5073807;28;20626;-82
2021/03/17 00:45:28;;;;;;;10.30;8.40;;;3.60;99.90;;;;;;5063847;28;20420;-81
2021/03/17 00:47:54;;;;;;;7.70;6.23;;;3.60;99.90;;;;;;5062908;28;20425;-81
2021/03/17 00:50:22;;;;;;;5.73;4.70;;;3.60;99.90;;;;;;5088667;28;20427;-81
2021/03/17 00:52:48;;;;;;;4.07;3.60;;;3.50;99.90;;;;;;5076536;28;20417;-82
2021/03/17 00:55:16;;;;;;;5.57;4.97;;;3.60;99.90;;;;;;5068663;28;20422;-81
2021/03/17 00:57:42;;;;;;;5.03;4.53;;;3.60;99.90;;;;;;5065280;28;20468;-83
2021/03/17 01:00:10;;;;;;;6.40;5.80;;;3.20;99.90;;;;;;5060825;28;20457;-82
2021/03/17 01:02:36;;;;;;;7.70;5.50;;;3.50;99.90;;;;;;5071064;28;20175;-81
2021/03/17 01:05:02;;;;;;;7.93;5.40;;;3.40;99.90;;;;;;5060083;28;20409;-81
2021/03/17 01:07:28;;;;;;;5.43;4.60;;;3.70;99.90;;;;;;5084394;28;20713;-81
2021/03/17 01:09:55;;;;;;;4.40;3.90;;;3.10;99.90;;;;;;5067552;28;21047;-81
2021/03/17 01:12:21;;;;;;;4.90;4.20;;;3.60;99.90;;;;;;5058926;28;20516;-82
2021/03/17 01:14:47;;;;;;;4.93;4.43;;;3.70;99.90;;;;;;5089292;28;20497;-81
2021/03/17 01:17:15;;;;;;;3.53;3.23;;;3.50;99.90;;;;;;5078830;28;20285;-82
2021/03/17 01:19:41;;;;;;;4.00;2.80;;;3.20;99.90;;;;;;5082617;28;20176;-82
2021/03/17 01:22:08;;;;;;;7.03;4.63;;;3.30;99.90;;;;;;5070808;28;20435;-83
2021/03/17 01:24:34;;;;;;;4.10;3.33;;;3.50;99.90;;;;;;5076410;28;20641;-82
2021/03/17 01:26:59;;;;;;;4.93;3.63;;;3.10;99.90;;;;;;5087946;28;20433;-83
2021/03/17 01:29:25;;;;;;;3.40;2.83;;;3.40;99.90;;;;;;5062317;28;20178;-82
2021/03/17 01:31:51;;;;;;;2.73;2.53;;;3.10;99.90;;;;;;5062638;28;20207;-83
2021/03/17 01:34:17;;;;;;;2.90;1.90;;;3.10;99.90;;;;;;5069319;28;20213;-82
2021/03/17 01:36:42;;;;;;;3.40;3.10;;;3.60;99.90;;;;;;5075479;28;20226;-81
2021/03/17 01:39:08;;;;;;;2.23;2.03;;;3.70;99.90;;;;;;5074176;28;20229;-81
2021/03/17 01:41:37;;;;;;;3.00;2.70;;;3.20;99.90;;;;;;5083122;28;20419;-82
2021/03/17 01:44:03;;;;;;;4.00;3.30;;;3.60;99.90;;;;;;5067115;28;20182;-82
2021/03/17 01:46:29;;;;;;;3.33;2.93;;;3.50;99.90;;;;;;5056734;28;20426;-82
2021/03/17 01:48:58;;;;;;;4.70;3.53;;;3.30;99.90;;;;;;5092156;28;20493;-81
2021/03/17 01:51:24;;;;;;;2.70;2.50;;;3.20;99.90;;;;;;5066098;28;20479;-82
2021/03/17 01:53:50;;;;;;;2.63;2.43;;;3.20;99.90;;;;;;5083383;28;20425;-82
2021/03/17 01:56:19;;;;;;;3.97;3.10;;;3.50;99.90;;;;;;5076486;28;20672;-82
2021/03/17 01:58:44;;;;;;;2.80;2.30;;;3.20;99.90;;;;;;5069558;28;20512;-82
2021/03/17 02:01:10;;;;;;;5.23;3.00;;;3.00;99.90;;;;;;5059619;28;20456;-82
2021/03/17 02:03:36;;;;;;;3.17;2.87;;;3.60;99.90;;;;;;5081628;28;20187;-81
2021/03/17 02:06:02;;;;;;;3.60;2.80;;;3.40;99.90;;;;;;5084589;28;20182;-81
2021/03/17 02:08:40;;;;;;;2.83;2.63;;;3.40;99.90;;;;;;5057058;28;20237;-81
2021/03/17 02:11:09;;;;;;;3.87;2.60;;;3.00;99.90;;;;;;5086299;28;20429;-81
2021/03/17 02:13:43;;;;;;;2.93;2.60;;;3.30;99.90;;;;;;5062786;28;20441;-82
2021/03/17 02:16:17;;;;;;;3.00;2.50;;;2.80;99.90;;;;;;5059219;28;20417;-82
2021/03/17 02:19:01;;;;;;;2.90;2.70;;;3.20;99.90;;;;;;5087737;28;20885;-82
2021/03/17 02:22:04;;;;;;;3.50;2.70;;;3.20;99.90;;;;;;5061530;28;20421;-82
2021/03/17 02:24:45;;;;;;;2.50;2.30;;;3.30;99.90;;;;;;5074759;28;20421;-81
2021/03/17 02:27:38;;;;;;;2.70;2.50;;;3.40;99.90;;;;;;5067163;28;20536;-82
2021/03/17 02:30:36;;;;;;;2.97;2.13;;;3.10;99.90;;;;;;5084387;28;20412;-82
2021/03/17 02:33:26;;;;;;;1.80;1.63;;;3.10;99.90;;;;;;5042791;28;20526;-81
2021/03/17 02:35:59;;;;;;;1.87;1.37;;;3.20;99.90;;;;;;5079400;28;20909;-81
2021/03/17 02:38:34;;;;;;;2.37;2.13;;;2.80;99.90;;;;;;5069435;28;20475;-81
2021/03/17 02:41:04;;;;;;;1.87;1.73;;;3.10;99.90;;;;;;5063091;28;20413;-82
2021/03/17 02:43:32;;;;;;;2.43;2.23;;;2.80;99.90;;;;;;5061830;28;20404;-81
2021/03/17 02:46:07;;;;;;;2.43;2.23;;;2.80;99.90;;;;;;5060074;28;20442;-81
2021/03/17 02:48:49;;;;;;;1.67;1.57;;;2.80;99.90;;;;;;5069454;28;20461;-81
2021/03/17 02:51:23;;;;;;;3.77;3.47;;;3.10;99.90;;;;;;5077683;28;20428;-81
2021/03/17 02:53:51;;;;;;;4.07;2.40;;;2.80;99.90;;;;;;5079810;28;20412;-83
2021/03/17 02:56:18;;;;;;;2.93;2.67;;;2.80;99.90;;;;;;5068107;28;20539;-82
2021/03/17 02:58:51;;;;;;;2.93;2.73;;;3.20;99.90;;;;;;5055747;28;20606;-81
2021/03/17 03:01:18;;;;;;;2.87;2.37;;;3.30;99.90;;;;;;5084210;28;20454;-81
2021/03/17 03:03:46;;;;;;;4.20;3.00;;;3.20;99.90;;;;;;5063416;28;20987;-81
2021/03/17 03:06:12;;;;;;;3.20;2.90;;;3.10;99.90;;;;;;5058558;28;20786;-82
2021/03/17 03:08:41;;;;;;;2.70;2.50;;;2.70;99.90;;;;;;5069415;28;20417;-81
2021/03/17 03:11:09;;;;;;;3.20;2.90;;;2.80;99.90;;;;;;5058537;28;20417;-81
2021/03/17 03:13:37;;;;;;;7.07;4.27;;;3.30;99.90;;;;;;5081568;28;20429;-81
2021/03/17 03:16:04;;;;;;;6.00;4.50;;;3.10;99.90;;;;;;5084320;28;20536;-82
2021/03/17 03:18:32;;;;;;;4.20;3.40;;;3.10;99.90;;;;;;5074191;28;20482;-82
2021/03/17 03:21:08;;;;;;;4.63;4.10;;;3.00;99.90;;;;;;5068144;28;20931;-82
2021/03/17 03:23:39;;;;;;;5.93;3.53;;;3.30;99.90;;;;;;5062099;28;20493;-81
2021/03/17 03:26:06;;;;;;;3.17;2.90;;;3.50;99.90;;;;;;5077140;28;20421;-81
2021/03/17 03:28:33;;;;;;;4.17;3.47;;;3.00;99.90;;;;;;5070308;28;20448;-82
2021/03/17 03:31:00;;;;;;;3.40;3.10;;;3.40;99.90;;;;;;5052567;28;20426;-81
2021/03/17 03:33:25;;;;;;;5.40;2.77;;;3.40;99.90;;;;;;5051542;28;20437;-81
2021/03/17 03:35:52;;;;;;;3.20;2.70;;;3.30;99.90;;;;;;5071786;28;20412;-81
2021/03/17 03:38:18;;;;;;;4.40;3.40;;;3.40;99.90;;;;;;5074454;28;20464;-81
2021/03/17 03:40:44;;;;;;;8.00;3.80;;;3.00;99.90;;;;;;5054379;28;20485;-82
2021/03/17 03:43:11;;;;;;;4.73;2.70;;;3.50;99.90;;;;;;5072179;28;20505;-81
2021/03/17 03:45:38;;;;;;;4.70;3.97;;;3.10;99.90;;;;;;5070584;28;20491;-81
2021/03/17 03:48:05;;;;;;;4.10;3.63;;;3.50;99.90;;;;;;5070405;28;20429;-81
2021/03/17 03:50:38;;;;;;;4.27;3.27;;;3.40;99.90;;;;;;5052117;28;20839;-81
2021/03/17 03:53:18;;;;;;;5.13;3.63;;;3.40;99.90;;;;;;5052388;28;20413;-81
2021/03/17 03:55:50;;;;;;;6.70;4.70;;;3.20;99.90;;;;;;5052509;28;20718;-81
2021/03/17 03:58:33;;;;;;;5.63;4.40;;;3.10;99.90;;;;;;5069845;28;20480;-81
2021/03/17 04:01:07;;;;;;;3.63;3.33;;;3.30;99.90;;;;;;5070325;28;20916;-81
2021/03/17 04:03:37;;;;;;;6.03;4.67;;;3.30;99.90;;;;;;5052584;28;20471;-81
2021/03/17 04:06:05;;;;;;;6.13;4.87;;;3.40;99.90;;;;;;5052044;28;20417;-82
2021/03/17 04:08:32;;;;;;;5.20;4.70;;;3.30;99.90;;;;;;5052515;28;20413;-81
2021/03/17 04:11:00;;;;;;;6.87;5.97;;;3.30;99.90;;;;;;5054264;28;20422;-81
2021/03/17 04:13:29;;;;;;;5.37;4.77;;;2.90;99.90;;;;;;5055921;28;20421;-81
2021/03/17 04:15:57;;;;;;;6.30;5.70;;;3.30;99.90;;;;;;5076155;28;20409;-82
2021/03/17 04:18:26;;;;;;;6.17;5.57;;;3.10;99.90;;;;;;5075124;28;20498;-81
2021/03/17 04:20:56;;;;;;;6.00;5.40;;;3.40;99.90;;;;;;5055931;28;20496;-81
2021/03/17 04:23:24;;;;;;;6.10;5.43;;;3.30;99.90;;;;;;5073669;28;20414;-81
2021/03/17 04:25:52;;;;;;;6.80;6.00;;;3.30;99.90;;;;;;5055938;28;20417;-80
2021/03/17 04:28:21;;;;;;;6.17;5.63;;;3.20;99.90;;;;;;5055595;28;21001;-81
2021/03/17 04:30:48;;;;;;;7.20;6.23;;;2.90;99.90;;;;;;5056524;28;20910;-80
2021/03/17 04:33:15;;;;;;;7.57;6.60;;;3.30;99.90;;;;;;5056620;28;20429;-81
2021/03/17 04:35:42;;;;;;;6.50;5.47;;;3.40;99.90;;;;;;5055359;28;20424;-81
2021/03/17 04:38:09;;;;;;;7.93;7.13;;;3.30;99.90;;;;;;5056231;28;21051;-82
2021/03/17 04:40:37;;;;;;;7.10;6.40;;;3.30;99.90;;;;;;5056839;28;20457;-81
2021/03/17 04:43:04;;;;;;;8.93;7.83;;;2.80;99.90;;;;;;5055938;28;20422;-81
2021/03/17 04:45:30;;;;;;;7.10;6.40;;;3.50;99.90;;;;;;5056002;28;20749;-81
2021/03/17 04:47:56;;;;;;;7.00;6.30;;;3.30;99.90;;;;;;5060894;28;20471;-81
2021/03/17 04:50:26;;;;;;;6.00;5.20;;;3.30;99.90;;;;;;5080811;28;20421;-81
2021/03/17 04:52:52;;;;;;;8.87;7.20;;;3.50;99.90;;;;;;5055338;28;20454;-81
2021/03/17 04:55:18;;;;;;;6.57;5.63;;;3.30;99.90;;;;;;5055545;28;20481;-81
2021/03/17 04:57:45;;;;;;;9.40;7.80;;;3.00;99.90;;;;;;5073016;28;20499;-81
2021/03/17 05:00:13;;;;;;;9.00;8.07;;;3.50;99.90;;;;;;5055035;28;20234;-82
2021/03/17 05:02:42;;;;;;;8.03;7.13;;;3.60;99.90;;;;;;5072512;28;20429;-81
2021/03/17 05:05:10;;;;;;;11.53;9.37;;;2.90;99.90;;;;;;5054782;28;20414;-82
2021/03/17 05:07:38;;;;;;;11.67;10.43;;;3.40;99.90;;;;;;5072861;28;20416;-82
2021/03/17 05:10:06;;;;;;;9.77;8.77;;;3.40;99.90;;;;;;5072698;28;20445;-84
2021/03/17 05:12:32;;;;;;;10.20;8.97;;;3.20;99.90;;;;;;5056278;28;20900;-82
2021/03/17 05:14:59;;;;;;;10.60;9.10;;;3.40;99.90;;;;;;5054887;28;20448;-82
2021/03/17 05:17:25;;;;;;;11.70;9.50;;;3.50;99.90;;;;;;5072281;28;20184;-82
2021/03/17 05:19:51;;;;;;;10.80;9.17;;;3.00;99.90;;;;;;5072698;28;20434;-83
2021/03/17 05:22:18;;;;;;;14.27;11.30;;;3.10;99.90;;;;;;5072783;28;20410;-82
2021/03/17 05:24:44;;;;;;;14.50;12.13;;;3.40;99.90;;;;;;5072385;28;20413;-81
2021/03/17 05:27:18;;;;;;;16.27;12.50;;;3.40;99.90;;;;;;5071963;28;20433;-78
2021/03/17 05:29:45;;;;;;;14.90;11.17;;;3.40;99.90;;;;;;5055614;28;20422;-82
2021/03/17 05:32:12;;;;;;;13.30;9.93;;;3.50;99.90;;;;;;5054246;28;20418;-82
2021/03/17 05:34:56;;;;;;;13.73;11.03;;;3.60;99.90;;;;;;5054942;28;20425;-82
2021/03/17 05:37:23;;;;;;;13.53;11.03;;;3.70;99.90;;;;;;5053729;28;20417;-81
2021/03/17 05:39:48;;;;;;;12.10;10.80;;;3.40;99.90;;;;;;5054792;28;20437;-82
2021/03/17 05:42:14;;;;;;;11.57;9.23;;;3.60;99.90;;;;;;5072168;28;20478;-81
2021/03/17 05:44:40;;;;;;;19.03;12.70;;;3.60;99.90;;;;;;5037300;28;20183;-78
2021/03/17 05:47:08;;;;;;;15.90;11.60;;;3.70;99.90;;;;;;5053829;28;20425;-82
2021/03/17 05:49:35;;;;;;;12.83;9.93;;;3.50;99.90;;;;;;5054641;28;20528;-81
2021/03/17 05:52:01;;;;;;;14.10;10.50;;;3.60;99.90;;;;;;5071608;28;20421;-81
2021/03/17 05:54:27;;;;;;;13.13;11.20;;;3.60;99.90;;;;;;5054283;28;20513;-81
2021/03/17 05:56:53;;;;;;;13.47;11.00;;;3.30;99.90;;;;;;5053689;28;20432;-81
2021/03/17 05:59:19;;;;;;;13.93;11.17;;;3.30;99.90;;;;;;5071914;28;20487;-81
2021/03/17 06:01:45;;;;;;;15.80;10.97;;;3.60;99.90;;;;;;5053863;28;20428;-81
2021/03/17 06:04:12;;;;;;;13.00;11.30;;;3.50;99.90;;;;;;5072593;28;20773;-81
2021/03/17 06:06:39;;;;;;;15.63;11.70;;;3.50;99.90;;;;;;5052649;28;20171;-81
2021/03/17 06:09:08;;;;;;;17.37;13.23;;;3.30;99.90;;;;;;5073654;28;20432;-82
2021/03/17 06:11:35;;;;;;;17.00;13.20;;;3.50;99.90;;;;;;5053555;28;21027;-81
2021/03/17 06:14:06;;;;;;;20.53;16.33;;;3.60;99.90;;;;;;5055465;28;20459;-83
2021/03/17 06:16:33;;;;;;;20.17;16.00;;;3.50;99.90;;;;;;5073248;28;20948;-82
2021/03/17 06:19:02;;;;;;;21.60;12.40;;;3.30;99.90;;;;;;5072082;28;20481;-81
2021/03/17 06:21:27;;;;;;;19.17;13.60;;;3.30;99.90;;;;;;5072689;28;20963;-80
2021/03/17 06:23:55;;;;;;;14.87;10.63;;;3.30;99.90;;;;;;5054743;28;20438;-82
2021/03/17 06:26:21;;;;;;;12.07;9.93;;;3.40;99.90;;;;;;5054035;28;20504;-82
2021/03/17 06:28:47;;;;;;;13.53;11.07;;;3.10;99.90;;;;;;5055204;28;20490;-81
2021/03/17 06:31:13;;;;;;;10.77;8.60;;;3.20;99.90;;;;;;5054161;28;20269;-82
2021/03/17 06:33:39;;;;;;;15.37;9.93;;;3.00;99.90;;;;;;5070469;28;20425;-81
2021/03/17 06:36:16;;;;;;;9.70;7.97;;;2.50;99.90;;;;;;5053150;28;20818;-81
2021/03/17 06:38:43;;;;;;;10.10;7.13;;;2.90;99.90;;;;;;5053772;28;20841;-81
2021/03/17 06:41:09;;;;;;;10.17;7.53;;;3.00;99.90;;;;;;5053542;28;20421;-83
2021/03/17 06:43:38;;;;;;;10.20;7.73;;;2.90;99.90;;;;;;5067703;28;20425;-79
2021/03/17 06:46:06;;;;;;;11.13;9.87;;;3.00;99.90;;;;;;5065509;28;20430;-81
2021/03/17 06:48:32;;;;;;;8.23;6.90;;;3.20;99.90;;;;;;5072735;28;20414;-81
2021/03/17 06:51:10;;;;;;;10.37;7.97;;;3.30;99.90;;;;;;5072796;28;20428;-82
2021/03/17 06:53:47;;;;;;;11.33;8.30;;;3.40;99.90;;;;;;5071126;28;20420;-82
2021/03/17 06:56:27;;;;;;;12.93;9.87;;;3.40;99.90;;;;;;5070698;28;20412;-83
2021/03/17 06:59:04;;;;;;;10.20;7.20;;;3.20;99.90;;;;;;5051271;28;20535;-82
2021/03/17 07:01:31;;;;;;;10.97;8.23;;;3.10;99.90;;;;;;5071328;28;20416;-82
2021/03/17 07:03:59;;;;;;;17.50;11.00;;;3.20;99.90;;;;;;5070236;28;20502;-83
2021/03/17 07:06:25;;;;;;;11.47;9.27;;;3.20;99.90;;;;;;5068650;28;20811;-79
2021/03/17 07:08:51;;;;;;;10.97;7.10;;;3.40;99.90;;;;;;5071813;28;20876;-81
2021/03/17 07:11:30;;;;;;;12.20;8.33;;;3.10;99.90;;;;;;5069913;28;21015;-80
2021/03/17 07:14:02;;;;;;;11.73;8.20;;;3.30;99.90;;;;;;5069113;28;20780;-81
2021/03/17 07:16:46;;;;;;;13.10;8.90;;;3.30;99.90;;;;;;5069060;28;20429;-81
2021/03/17 07:19:38;;;;;;;12.00;9.80;;;3.40;99.90;;;;;;5063660;28;20976;-81
2021/03/17 07:22:14;;;;;;;10.27;7.50;;;3.30;99.90;;;;;;5068591;28;21130;-81
2021/03/17 07:25:01;;;;;;;13.30;9.27;;;3.40;99.90;;;;;;5068226;28;20429;-80
2021/03/17 07:27:29;;;;;;;12.23;9.40;;;3.40;99.90;;;;;;5070301;28;20758;-81
2021/03/17 07:29:57;;;;;;;10.57;8.20;;;3.50;99.90;;;;;;5068610;28;20433;-82
2021/03/17 07:32:23;;;;;;;10.60;7.23;;;3.70;99.90;;;;;;5069659;28;20469;-82
2021/03/17 07:34:49;;;;;;;12.60;10.03;;;3.70;99.90;;;;;;5068579;28;21117;-81
2021/03/17 07:37:15;;;;;;;11.17;8.80;;;3.70;99.90;;;;;;5068924;28;20418;-82
2021/03/17 07:39:42;;;;;;;17.37;8.93;;;3.90;99.90;;;;;;5061619;28;20207;-80
2021/03/17 07:42:10;;;;;;;10.77;9.37;;;4.10;99.90;;;;;;5051827;28;20418;-82
2021/03/17 07:44:38;;;;;;;11.60;9.27;;;4.10;99.90;;;;;;5069926;28;20421;-82
2021/03/17 07:47:10;;;;;;;9.87;8.27;;;3.80;99.90;;;;;;5055472;28;20511;-79
2021/03/17 07:49:40;;;;;;;10.10;8.50;;;4.30;99.90;;;;;;5073541;28;20452;-82
2021/03/17 07:52:08;;;;;;;12.97;9.70;;;4.20;99.90;;;;;;5073352;28;20425;-82
2021/03/17 07:54:36;;;;;;;13.23;9.80;;;4.40;99.90;;;;;;5074288;28;20821;-84
2021/03/17 07:57:06;;;;;;;11.90;7.40;;;3.90;99.90;;;;;;5055612;28;20780;-80
2021/03/17 07:59:34;;;;;;;14.37;9.70;;;4.30;99.90;;;;;;5071903;28;20483;-81
2021/03/17 08:02:00;;;;;;;13.17;9.40;;;3.70;99.90;;;;;;5055531;28;20421;-82
2021/03/17 08:04:33;;;;;;;13.57;9.20;;;3.90;99.90;;;;;;5055993;28;20424;-82
2021/03/17 08:07:04;;;;;;;14.90;10.40;;;4.40;99.90;;;;;;5073536;28;20729;-82
2021/03/17 08:09:30;;;;;;;10.87;9.47;;;4.50;99.90;;;;;;5055472;28;20845;-83
2021/03/17 08:12:00;;;;;;;11.20;9.80;;;4.60;99.90;;;;;;5074131;28;20417;-80
2021/03/17 08:14:26;;;;;;;13.30;8.80;;;4.70;99.90;;;;;;5055484;28;20990;-81
2021/03/17 08:16:52;;;;;;;10.17;8.57;;;4.30;99.90;;;;;;5072990;28;20425;-81
2021/03/17 08:19:26;;;;;;;13.07;9.33;;;4.80;99.90;;;;;;5073649;28;20469;-77
2021/03/17 08:22:00;;;;;;;12.00;8.60;;;4.90;99.90;;;;;;5072940;28;20410;-81
2021/03/17 08:24:40;;;;;;;9.93;8.23;;;4.80;99.90;;;;;;5055083;28;20524;-80
2021/03/17 08:27:06;;;;;;;13.53;8.13;;;4.80;99.90;;;;;;5074166;28;20421;-81
2021/03/17 08:30:02;;;;;;;10.60;7.90;;;4.70;99.90;;;;;;5055424;28;21012;-80
2021/03/17 08:32:51;;;;;;;11.87;9.60;;;5.00;99.90;;;;;;5054954;28;20175;-82
2021/03/17 08:35:16;;;;;;;12.70;10.00;;;5.30;99.90;;;;;;5054951;28;20960;-82
2021/03/17 08:37:52;;;;;;;10.70;9.63;;;6.00;99.90;;;;;;5075652;28;20503;-81
2021/03/17 08:40:27;;;;;;;10.63;9.40;;;6.50;99.90;;;;;;5054719;28;20212;-82
2021/03/17 08:42:53;;;;;;;10.50;9.40;;;7.20;99.90;;;;;;5054152;28;20425;-81
2021/03/17 08:45:19;;;;;;;10.33;9.33;;;7.50;99.90;;;;;;5073104;28;20513;-83
2021/03/17 08:47:46;;;;;;;11.47;9.30;;;8.30;99.90;;;;;;5055038;28;20244;-82
2021/03/17 08:50:15;;;;;;;11.30;10.30;;;9.00;99.90;;;;;;5055007;28;20433;-81
2021/03/17 08:52:43;;;;;;;11.77;10.57;;;8.70;99.90;;;;;;5070953;28;20456;-82
2021/03/17 08:55:12;;;;;;;10.67;9.67;;;8.20;99.90;;;;;;5071994;28;20869;-81
2021/03/17 08:58:02;;;;;;;13.37;9.77;;;7.80;99.90;;;;;;5071622;28;20431;-78
2021/03/17 09:00:46;;;;;;;15.40;9.80;;;7.60;99.90;;;;;;5072319;28;20508;-82
2021/03/17 09:03:31;;;;;;;10.43;9.27;;;8.10;99.90;;;;;;5054335;28;20739;-80
2021/03/17 09:06:13;;;;;;;9.53;8.10;;;8.20;99.90;;;;;;5072285;28;20417;-81
2021/03/17 09:08:55;;;;;;;11.70;9.37;;;7.70;99.90;;;;;;5072407;28;20466;-81
2021/03/17 09:11:30;;;;;;;10.57;8.73;;;8.00;99.90;;;;;;5054284;28;20421;-80
2021/03/17 09:14:07;;;;;;;10.53;8.50;;;9.30;99.90;;;;;;5071932;28;20428;-79
2021/03/17 09:16:36;;;;;;;9.90;8.17;;;10.60;99.90;;;;;;5072172;28;20804;-80
2021/03/17 09:19:13;;;;;;;7.53;6.90;;;10.30;1.00;;;;;;5072104;28;20999;-80
2021/03/17 09:21:41;;;;;;;8.43;7.63;;;10.80;1.00;;;;;;5071534;28;20411;-81
2021/03/17 09:24:33;;;;;;;7.93;7.13;;;10.90;1.00;;;;;;5072000;28;20414;-82
2021/03/17 09:27:03;;;;;;;8.83;8.03;;;11.80;1.00;;;;;;5073444;28;20440;-81
2021/03/17 09:29:29;;;;;;;8.77;8.00;;;12.00;1.00;;;;;;5071532;28;20409;-81
2021/03/17 09:31:55;;;;;;;10.40;9.53;;;10.70;1.00;;;;;;5072293;28;21030;-81
2021/03/17 09:34:28;;;;;;;7.97;7.10;;;10.10;1.00;;;;;;5054182;28;20179;-81
2021/03/17 09:37:08;;;;;;;9.13;7.37;;;9.70;99.90;;;;;;5071131;28;20191;-81
2021/03/17 09:39:35;;;;;;;7.70;6.87;;;10.80;99.90;;;;;;5071537;28;20476;-81
2021/03/17 09:42:01;;;;;;;8.10;7.40;;;11.20;1.00;;;;;;5071568;28;20422;-80
2021/03/17 09:44:27;;;;;;;5.60;5.20;;;12.20;12.20;;;;;;5054115;28;20433;-81
2021/03/17 09:46:53;;;;;;;7.77;7.13;;;11.90;67.70;;;;;;5071130;28;20893;-82
2021/03/17 09:49:25;;;;;;;6.93;6.23;;;11.20;99.90;;;;;;5052646;28;20179;-81
2021/03/17 09:51:59;;;;;;;7.47;6.40;;;11.00;1.00;;;;;;5053299;28;20425;-80
2021/03/17 09:54:27;;;;;;;6.90;4.33;;;11.30;1.00;;;;;;5071545;28;20483;-82
2021/03/17 09:56:57;;;;;;;3.60;3.30;;;11.80;99.90;;;;;;5071337;28;20757;-82
2021/03/17 09:59:27;;;;;;;3.60;3.23;;;12.20;1.00;;;;;;5070931;28;20473;-82
2021/03/17 10:01:57;;;;;;;5.80;5.13;;;11.40;1.00;;;;;;5055631;28;20423;-82
2021/03/17 10:04:26;;;;;;;6.70;6.10;;;10.70;1.00;;;;;;5072693;28;20481;-80
2021/03/17 10:06:52;;;;;;;8.40;4.97;;;10.60;99.90;;;;;;5053613;28;20414;-80
2021/03/17 10:09:19;;;;;;;4.47;4.07;;;9.70;99.90;;;;;;5070165;28;21058;-82
2021/03/17 10:11:46;;;;;;;20.10;6.07;;;9.90;99.90;;;;;;5071210;28;20412;-82
2021/03/17 10:14:17;;;;;;;8.93;4.03;;;9.40;73.10;;;;;;5071288;28;20432;-83
2021/03/17 10:16:44;;;;;;;4.33;4.00;;;9.10;1.00;;;;;;5070660;28;20466;-83
2021/03/17 10:19:14;;;;;;;7.00;4.50;;;9.20;99.90;;;;;;5070740;28;20561;-81
2021/03/17 10:21:41;;;;;;;4.10;3.77;;;8.70;99.90;;;;;;5070698;28;20422;-83
2021/03/17 10:24:07;;;;;;;6.53;2.97;;;8.90;99.90;;;;;;5070289;28;20465;-82
2021/03/17 10:26:35;;;;;;;3.03;2.83;;;9.30;11.30;;;;;;5069986;28;20413;-82
2021/03/17 10:29:01;;;;;;;6.87;3.47;;;9.50;1.00;;;;;;5069884;28;20425;-82
2021/03/17 10:31:31;;;;;;;2.93;2.73;;;9.60;1.00;;;;;;5070046;28;20421;-82
2021/03/17 10:33:57;;;;;;;6.20;3.97;;;10.00;1.00;;;;;;5052638;28;20482;-82
2021/03/17 10:36:22;;;;;;;11.10;5.17;;;9.60;1.00;;;;;;5071111;28;20896;-82
2021/03/17 10:38:53;;;;;;;8.27;4.20;;;9.70;1.00;;;;;;5052582;28;20207;-81
2021/03/17 10:41:46;;;;;;;4.97;4.37;;;9.40;1.00;;;;;;5070286;28;20206;-82
2021/03/17 10:44:14;;;;;;;10.17;5.23;;;9.20;1.00;;;;;;5074029;28;20405;-79
2021/03/17 10:46:59;;;;;;;23.90;6.17;;;8.50;1.00;;;;;;5072256;28;21020;-83
2021/03/17 10:49:24;;;;;;;6.33;3.73;;;8.10;1.00;;;;;;5053839;28;20420;-82
2021/03/17 10:51:51;;;;;;;3.80;3.40;;;8.00;99.90;;;;;;5054478;28;20410;-82
2021/03/17 10:54:30;;;;;;;5.03;4.57;;;7.70;99.90;;;;;;5071179;28;20410;-82
2021/03/17 10:56:55;;;;;;;4.00;3.60;;;7.80;99.90;;;;;;5071408;28;20405;-82
2021/03/17 10:59:33;;;;;;;4.87;4.27;;;7.70;1.00;;;;;;5071382;28;20557;-82
2021/03/17 11:02:19;;;;;;;5.97;5.13;;;7.50;99.90;;;;;;5053866;28;20167;-80
2021/03/17 11:05:07;;;;;;;6.50;4.30;;;7.10;99.90;;;;;;5061721;28;20930;-81
2021/03/17 11:08:06;;;;;;;6.87;5.40;;;6.70;1.00;;;;;;5071920;28;20420;-81
2021/03/17 11:10:34;;;;;;;6.40;5.80;;;6.90;99.90;;;;;;5053435;28;20406;-82
2021/03/17 11:13:10;;;;;;;7.67;5.87;;;6.80;99.90;;;;;;5072015;28;20508;-83
2021/03/17 11:15:57;;;;;;;8.67;5.70;;;6.70;1.00;;;;;;5070882;28;20405;-82
2021/03/17 11:18:24;;;;;;;8.00;6.50;;;6.40;1.00;;;;;;5037875;28;20469;-82
2021/03/17 11:20:51;;;;;;;6.60;5.57;;;6.50;1.00;;;;;;5075237;28;20781;-83
2021/03/17 11:23:19;;;;;;;6.73;5.87;;;6.60;1.00;;;;;;5056786;28;20455;-83
2021/03/17 11:25:45;;;;;;;11.20;6.00;;;6.50;1.00;;;;;;5057242;28;20504;-82
2021/03/17 11:28:16;;;;;;;7.33;5.33;;;6.40;1.00;;;;;;5075818;28;20560;-81
2021/03/17 11:30:46;;;;;;;7.47;6.73;;;6.30;1.00;;;;;;5057260;28;20444;-82
2021/03/17 11:33:13;;;;;;;9.50;6.60;;;6.20;1.00;;;;;;5076605;28;20921;-81
2021/03/17 11:35:43;;;;;;;8.50;6.80;;;6.20;5.70;;;;;;5076208;28;20463;-83
2021/03/17 11:38:10;;;;;;;6.20;5.60;;;6.30;32.00;;;;;;5057949;28;20481;-83
2021/03/17 11:40:36;;;;;;;9.00;6.77;;;6.30;42.20;;;;;;5057790;28;20429;-82
2021/03/17 11:43:10;;;;;;;7.03;5.87;;;6.00;85.90;;;;;;5057969;28;20792;-82
2021/03/17 11:45:37;;;;;;;6.97;5.77;;;6.00;99.90;;;;;;5057384;28;20959;-83
2021/03/17 11:48:03;;;;;;;10.07;7.33;;;6.00;99.90;;;;;;5058568;28;20484;-83
2021/03/17 11:50:29;;;;;;;9.23;7.37;;;5.70;99.90;;;;;;5074903;28;20417;-83
2021/03/17 11:52:55;;;;;;;8.60;6.57;;;5.40;99.90;;;;;;5056851;28;20417;-82
2021/03/17 11:55:22;;;;;;;14.30;7.30;;;5.20;99.90;;;;;;5056697;28;20178;-82
2021/03/17 11:57:48;;;;;;;11.70;6.53;;;5.10;99.90;;;;;;5076140;28;20210;-82
2021/03/17 12:00:15;;;;;;;9.17;7.83;;;5.00;99.90;;;;;;5056674;28;20489;-82
2021/03/17 12:02:41;;;;;;;14.53;7.97;;;4.80;99.90;;;;;;5056887;28;20427;-82
2021/03/17 12:05:07;;;;;;;11.37;7.50;;;4.80;99.90;;;;;;5057952;28;20421;-82
2021/03/17 12:07:34;;;;;;;11.70;9.40;;;4.70;99.90;;;;;;5074663;28;20403;-82
2021/03/17 12:10:00;;;;;;;8.37;7.53;;;4.60;99.90;;;;;;5057251;28;20457;-81
2021/03/17 12:12:26;;;;;;;8.50;7.50;;;4.70;99.90;;;;;;5057380;28;20448;-82
2021/03/17 12:14:51;;;;;;;10.57;7.67;;;4.80;99.90;;;;;;5057472;28;20595;-83
2021/03/17 12:17:17;;;;;;;8.80;7.73;;;5.00;99.90;;;;;;5056973;28;20179;-81
2021/03/17 12:19:43;;;;;;;9.20;6.63;;;5.50;99.90;;;;;;5075445;28;20219;-83
2021/03/17 12:22:08;;;;;;;8.80;7.17;;;5.80;99.90;;;;;;5058298;28;20239;-80
2021/03/17 12:24:34;;;;;;;8.27;6.73;;;6.00;99.90;;;;;;5057996;28;20198;-82
2021/03/17 12:27:00;;;;;;;8.60;7.67;;;6.00;99.90;;;;;;5056620;28;20262;-83
2021/03/17 12:29:25;;;;;;;11.00;8.00;;;6.10;99.90;;;;;;5075349;28;20534;-83
2021/03/17 12:31:51;;;;;;;7.43;6.63;;;6.30;99.90;;;;;;5055677;28;20179;-81
2021/03/17 12:34:17;;;;;;;7.00;6.30;;;6.20;99.90;;;;;;5056437;28;20179;-83
2021/03/17 12:36:42;;;;;;;6.80;5.90;;;6.20;99.90;;;;;;5057009;28;20177;-83
2021/03/17 12:39:08;;;;;;;7.10;6.47;;;6.00;99.90;;;;;;5056416;28;20222;-79
2021/03/17 12:41:34;;;;;;;6.33;5.70;;;5.80;99.90;;;;;;5075773;28;20183;-81
2021/03/17 12:43:59;;;;;;;8.90;7.40;;;5.80;99.90;;;;;;5056651;28;20183;-83
2021/03/17 12:46:25;;;;;;;7.40;6.43;;;5.50;99.90;;;;;;5075176;28;20179;-85
2021/03/17 12:48:50;;;;;;;9.40;8.33;;;5.50;99.90;;;;;;5056410;28;20190;-83
2021/03/17 12:51:16;;;;;;;7.27;6.10;;;5.30;99.90;;;;;;5073755;28;20256;-82
2021/03/17 12:53:42;;;;;;;8.57;7.33;;;5.20;99.90;;;;;;5055888;28;20545;-82
2021/03/17 12:56:08;;;;;;;9.67;7.50;;;5.00;99.90;;;;;;5074903;28;20179;-82
2021/03/17 12:58:33;;;;;;;9.43;7.93;;;4.90;99.90;;;;;;5057551;28;20469;-80
2021/03/17 13:00:59;;;;;;;9.73;8.60;;;5.10;99.90;;;;;;5057035;28;20314;-82
2021/03/17 13:03:25;;;;;;;8.47;7.67;;;5.20;99.90;;;;;;5057530;28;20183;-83
2021/03/17 13:05:51;;;;;;;13.43;8.90;;;5.20;99.90;;;;;;5056222;28;20463;-80